Time;durP1;ratioP1;P1;durP2;ratioP2;P2;SDS_P1;SDS_P2;PMS_P1;PMS_P2;Temp;Humidity;BMP_temperature;BMP_pressure;BME280_temperature;BME280_humidity;BME280_pressure;Samples;Min_cycle;Max_cycle;Signal;HPM_P1;HPM_P2
2022/01/27 00:05:52;;;;;;;102.05;38.38;;;;;;;-4.68;75.53;99686.34;1767771;81;20916;-67
2022/01/27 00:08:21;;;;;;;110.92;41.00;;;;;;;-4.78;75.61;99683.28;1767186;81;21105;-67
2022/01/27 00:10:52;;;;;;;107.05;36.53;;;;;;;-4.82;75.70;99676.66;1767229;81;20845;-68
2022/01/27 00:13:20;;;;;;;98.85;37.10;;;;;;;-4.92;75.56;99675.27;1767810;81;21136;-68
2022/01/27 00:15:49;;;;;;;94.13;36.42;;;;;;;-4.95;75.55;99681.59;1767592;81;20885;-67
2022/01/27 00:18:22;;;;;;;99.95;40.55;;;;;;;-5.03;75.59;99676.75;1767599;81;20945;-70
2022/01/27 00:20:52;;;;;;;86.25;37.58;;;;;;;-5.19;75.65;99686.13;1767742;81;38737;-68
2022/01/27 00:23:19;;;;;;;91.70;36.50;;;;;;;-5.31;75.86;99675.72;1767633;81;21040;-67
2022/01/27 00:25:50;;;;;;;84.15;34.25;;;;;;;-5.33;76.16;99679.96;1767647;80;21125;-66
2022/01/27 00:28:16;;;;;;;94.35;35.75;;;;;;;-5.31;76.20;99685.12;1767681;81;20909;-68
2022/01/27 00:30:46;;;;;;;87.40;35.08;;;;;;;-5.33;76.34;99683.16;1767331;81;20929;-67
2022/01/27 00:33:14;;;;;;;83.42;35.23;;;;;;;-5.33;76.57;99681.30;1767668;81;20964;-67
2022/01/27 00:35:42;;;;;;;96.35;36.60;;;;;;;-5.34;76.62;99678.32;1764891;81;20979;-68
2022/01/27 00:38:10;;;;;;;95.15;37.63;;;;;;;-5.33;76.82;99673.75;1767641;81;21194;-67
2022/01/27 00:40:37;;;;;;;81.00;35.20;;;;;;;-5.30;76.97;99666.61;1767644;81;20826;-68
2022/01/27 00:43:09;;;;;;;91.37;37.58;;;;;;;-5.27;77.09;99661.64;1767692;81;20972;-68
2022/01/27 00:45:39;;;;;;;101.27;37.28;;;;;;;-5.24;77.27;99664.44;1767757;81;20996;-67
2022/01/27 00:48:09;;;;;;;92.88;37.40;;;;;;;-5.21;77.36;99662.67;1767689;81;21430;-67
2022/01/27 00:50:39;;;;;;;104.25;39.98;;;;;;;-5.19;77.48;99659.77;1767702;81;22314;-68
2022/01/27 00:53:19;;;;;;;95.17;37.38;;;;;;;-5.18;77.55;99668.95;1767877;81;20841;-67
2022/01/27 00:55:40;;;;;;;93.58;38.65;;;;;;;-5.25;77.84;99670.83;1765580;81;20975;-67
2022/01/27 01:00:56;;;;;;;105.10;39.20;;;;;;;-5.29;77.95;99663.70;1747730;81;20941;-67
2022/01/27 01:03:29;;;;;;;101.22;38.55;;;;;;;-5.30;77.99;99662.58;1767069;81;20957;-67
2022/01/27 01:16:48;;;;;;;140.80;52.73;;;;;;;-5.26;78.95;99671.88;1767820;81;21386;-67
2022/01/27 01:19:08;;;;;;;127.72;49.83;;;;;;;-5.19;79.13;99673.20;1740225;81;21009;-67
2022/01/27 01:34:54;;;;;;;76.42;29.98;;;;;;;-5.09;79.99;99662.83;1767748;81;20932;-67
2022/01/27 01:37:21;;;;;;;66.53;24.43;;;;;;;-5.13;79.93;99653.53;1767776;81;20997;-67
2022/01/27 01:39:47;;;;;;;77.50;29.35;;;;;;;-5.14;80.02;99650.55;1767978;81;21413;-67
2022/01/27 01:42:16;;;;;;;75.00;29.35;;;;;;;-5.11;80.04;99647.94;1744194;81;21220;-67
2022/01/27 01:44:49;;;;;;;71.00;27.10;;;;;;;-5.10;80.12;99645.58;1767866;81;20920;-66
2022/01/27 01:47:20;;;;;;;73.22;28.60;;;;;;;-5.05;80.13;99640.39;1767862;81;20942;-68
2022/01/27 01:49:47;;;;;;;67.47;28.50;;;;;;;-5.01;80.19;99629.50;1768463;81;21446;-67
2022/01/27 01:52:19;;;;;;;69.07;27.05;;;;;;;-4.97;80.30;99627.20;1767687;81;20925;-67
2022/01/27 01:54:46;;;;;;;65.62;26.73;;;;;;;-4.95;80.34;99635.89;1767922;81;21182;-67
2022/01/27 01:57:18;;;;;;;73.78;27.05;;;;;;;-4.93;80.32;99643.23;1744475;81;21417;-68
2022/01/27 01:59:50;;;;;;;66.95;27.73;;;;;;;-4.88;80.25;99651.48;1767714;81;21438;-67
2022/01/27 02:02:22;;;;;;;74.70;27.48;;;;;;;-4.84;80.16;99651.34;1767670;81;21008;-67
2022/01/27 02:04:51;;;;;;;84.80;28.83;;;;;;;-4.79;80.24;99650.69;1768028;81;20889;-67
2022/01/27 02:18:33;;;;;;;98.35;34.13;;;;;;;-4.67;80.12;99636.03;1767811;81;21032;-68
2022/01/27 02:21:01;;;;;;;87.42;30.55;;;;;;;-4.60;80.11;99623.89;1720371;81;20984;-68
2022/01/27 02:23:27;;;;;;;81.97;29.10;;;;;;;-4.54;80.03;99618.47;1767427;81;20920;-68
2022/01/27 02:25:54;;;;;;;63.28;24.15;;;;;;;-4.49;79.85;99613.80;1772157;80;20892;-67
2022/01/27 02:28:21;;;;;;;75.47;24.65;;;;;;;-4.43;79.68;99622.34;1786984;80;21000;-67
2022/01/27 02:30:47;;;;;;;48.78;19.52;;;;;;;-4.37;79.45;99615.27;1756383;80;20924;-68
2022/01/27 02:33:16;;;;;;;44.93;18.32;;;;;;;-4.31;79.29;99626.49;1786958;79;20837;-67
2022/01/27 02:35:45;;;;;;;45.90;19.23;;;;;;;-4.25;78.96;99613.20;1786989;80;20920;-67
2022/01/27 02:38:12;;;;;;;55.17;19.52;;;;;;;-4.21;78.72;99615.73;1787060;79;20924;-67
2022/01/27 02:40:52;;;;;;;48.68;19.67;;;;;;;-4.20;78.38;99607.47;1787098;79;20892;-67
2022/01/27 02:43:21;;;;;;;45.75;17.07;;;;;;;-4.19;78.14;99607.77;1731675;80;21303;-68
2022/01/27 02:46:06;;;;;;;45.95;17.07;;;;;;;-4.20;77.89;99612.02;1786962;80;21181;-67
2022/01/27 02:48:38;;;;;;;39.85;15.72;;;;;;;-4.19;77.78;99615.00;1787022;79;21500;-67
2022/01/27 02:51:05;;;;;;;36.90;15.10;;;;;;;-4.18;77.53;99622.86;1787418;80;21548;-67
2022/01/27 02:53:33;;;;;;;44.50;17.10;;;;;;;-4.20;77.38;99618.75;1786897;80;20999;-67
2022/01/27 02:56:02;;;;;;;39.08;14.18;;;;;;;-4.19;77.37;99613.66;1787223;79;21019;-68
2022/01/27 02:58:31;;;;;;;33.00;13.03;;;;;;;-4.17;77.32;99621.84;1756215;80;21197;-67
2022/01/27 03:00:58;;;;;;;31.33;13.68;;;;;;;-4.16;77.22;99622.13;1787254;80;21353;-67
2022/01/27 03:03:27;;;;;;;30.57;12.55;;;;;;;-4.15;77.03;99631.03;1786859;80;20884;-67
2022/01/27 03:05:54;;;;;;;36.83;14.35;;;;;;;-4.15;77.04;99624.30;1786965;80;20932;-68
2022/01/27 03:08:23;;;;;;;39.00;14.83;;;;;;;-4.12;76.97;99610.40;1787034;79;20932;-67
2022/01/27 03:11:01;;;;;;;39.80;15.28;;;;;;;-4.12;76.71;99609.56;1787227;80;21155;-67
2022/01/27 03:13:31;;;;;;;49.75;17.52;;;;;;;-4.12;76.63;99605.53;1787161;79;20921;-67
2022/01/27 03:15:57;;;;;;;35.88;13.53;;;;;;;-4.12;76.56;99603.67;1786784;80;20955;-68
2022/01/27 03:18:27;;;;;;;36.48;12.93;;;;;;;-4.11;76.53;99591.84;1786872;80;21413;-67
2022/01/27 03:20:54;;;;;;;28.70;12.05;;;;;;;-4.10;76.41;99584.60;1787272;80;20995;-69
2022/01/27 03:23:21;;;;;;;28.45;12.70;;;;;;;-4.12;76.23;99596.11;1787023;79;21276;-67
2022/01/27 03:25:50;;;;;;;24.63;9.38;;;;;;;-4.17;76.16;99593.57;1786891;80;20927;-68
2022/01/27 03:28:24;;;;;;;25.65;10.15;;;;;;;-4.19;76.13;99588.92;1784464;80;21031;-68
2022/01/27 03:30:48;;;;;;;25.77;11.30;;;;;;;-4.17;76.01;99595.43;1784180;80;20900;-68
2022/01/27 03:33:16;;;;;;;22.35;9.85;;;;;;;-4.17;76.10;99595.43;1784638;80;20888;-68
2022/01/27 03:35:42;;;;;;;29.23;10.82;;;;;;;-4.14;76.04;99594.19;1784555;80;21952;-68
2022/01/27 03:38:14;;;;;;;31.68;10.90;;;;;;;-4.17;75.85;99585.50;1754287;80;20935;-68
2022/01/27 03:40:41;;;;;;;28.38;10.70;;;;;;;-4.21;75.74;99576.20;1784752;80;21438;-67
2022/01/27 03:43:09;;;;;;;22.93;10.80;;;;;;;-4.28;75.67;99575.42;1784440;80;20980;-68
2022/01/27 03:45:36;;;;;;;25.77;11.48;;;;;;;-4.32;75.67;99570.20;1784793;80;20911;-68
2022/01/27 03:48:06;;;;;;;30.97;10.32;;;;;;;-4.34;75.69;99573.63;1784591;80;21503;-67
2022/01/27 03:50:34;;;;;;;24.45;10.38;;;;;;;-4.35;75.72;99567.41;1784629;80;20932;-69
2022/01/27 03:53:01;;;;;;;21.17;9.38;;;;;;;-4.33;75.60;99564.53;1784326;80;21583;-68
2022/01/27 03:55:28;;;;;;;25.35;8.68;;;;;;;-4.35;75.37;99554.50;1784494;80;20892;-68
2022/01/27 03:57:54;;;;;;;28.80;9.93;;;;;;;-4.38;75.27;99559.78;1784477;80;20979;-66
2022/01/27 04:00:22;;;;;;;18.65;8.95;;;;;;;-4.42;75.29;99548.63;1784465;80;21057;-67
2022/01/27 04:03:28;;;;;;;23.47;8.58;;;;;;;-4.42;75.18;99558.59;1784454;80;21516;-67
2022/01/27 04:05:34;;;;;;;19.07;8.73;;;;;;;-4.44;75.05;99549.39;1770556;80;20888;-68
2022/01/27 04:08:05;;;;;;;24.35;8.58;;;;;;;-4.52;74.67;99551.02;1784368;80;20968;-68
2022/01/27 04:10:32;;;;;;;18.15;8.20;;;;;;;-4.57;74.68;99550.31;1784148;80;20958;-68
2022/01/27 04:13:03;;;;;;;17.05;8.03;;;;;;;-4.58;74.70;99549.19;1784699;80;21115;-67
2022/01/27 04:15:30;;;;;;;17.55;7.70;;;;;;;-4.62;74.61;99546.11;1784490;80;21414;-66
2022/01/27 04:17:59;;;;;;;16.60;7.72;;;;;;;-4.66;74.53;99541.68;1784757;80;21476;-68
2022/01/27 04:20:27;;;;;;;21.17;7.50;;;;;;;-4.68;74.57;99547.83;1784566;80;21418;-68
2022/01/27 04:22:55;;;;;;;16.12;6.40;;;;;;;-4.72;74.52;99545.25;1784335;80;21050;-68
2022/01/27 04:25:25;;;;;;;20.27;7.40;;;;;;;-4.75;74.52;99545.70;1784368;80;21120;-68
2022/01/27 04:27:56;;;;;;;19.82;7.30;;;;;;;-4.78;74.42;99542.09;1784301;79;20980;-66
2022/01/27 04:30:23;;;;;;;20.17;7.33;;;;;;;-4.85;74.38;99535.94;1784101;80;20991;-67
2022/01/27 04:32:58;;;;;;;15.23;6.20;;;;;;;-4.87;74.47;99531.29;1784451;80;20945;-68
2022/01/27 04:35:23;;;;;;;22.42;8.75;;;;;;;-4.91;74.33;99526.35;1783751;80;20994;-69
2022/01/27 04:38:11;;;;;;;24.40;10.65;;;;;;;-4.94;74.48;99516.04;1784296;80;21781;-68
2022/01/27 04:40:37;;;;;;;24.27;10.00;;;;;;;-4.96;74.52;99518.11;1782024;80;20880;-68
2022/01/27 04:43:19;;;;;;;26.85;10.55;;;;;;;-5.00;74.54;99522.30;1784281;80;21433;-68
2022/01/27 04:45:47;;;;;;;22.52;8.88;;;;;;;-5.03;74.47;99532.11;1780036;80;20865;-67
2022/01/27 04:48:14;;;;;;;20.95;8.35;;;;;;;-5.07;74.64;99527.72;1783201;80;20928;-68
2022/01/27 04:50:44;;;;;;;25.30;9.43;;;;;;;-5.11;74.51;99526.99;1784141;80;21409;-68
2022/01/27 04:53:26;;;;;;;29.30;11.43;;;;;;;-5.18;74.48;99527.87;1784583;80;21035;-68
2022/01/27 04:55:44;;;;;;;24.10;10.55;;;;;;;-5.24;74.44;99527.39;1782152;80;20959;-68
2022/01/27 04:58:15;;;;;;;27.93;10.50;;;;;;;-5.32;74.45;99526.31;1784897;80;20967;-68
2022/01/27 05:00:40;;;;;;;25.00;10.98;;;;;;;-5.34;74.68;99518.46;1784191;80;20844;-68
2022/01/27 05:03:30;;;;;;;26.93;11.97;;;;;;;-5.35;74.73;99515.96;1754033;80;21386;-68
2022/01/27 05:05:52;;;;;;;26.45;11.65;;;;;;;-5.38;74.73;99518.58;1782310;80;20852;-68
2022/01/27 05:08:19;;;;;;;24.27;10.45;;;;;;;-5.43;74.69;99518.39;1784750;79;20971;-68
2022/01/27 05:11:04;;;;;;;23.60;10.48;;;;;;;-5.50;74.81;99519.77;1784866;80;21516;-68
2022/01/27 05:13:30;;;;;;;28.55;11.80;;;;;;;-5.53;74.97;99517.00;1783901;80;20869;-68
2022/01/27 05:15:55;;;;;;;31.20;13.38;;;;;;;-5.57;75.19;99522.48;1784559;80;21131;-68
2022/01/27 05:18:24;;;;;;;36.55;13.43;;;;;;;-5.60;75.21;99524.77;1784442;80;20975;-68
2022/01/27 05:20:55;;;;;;;76.35;30.92;;;;;;;-5.62;75.30;99524.98;1754749;80;21019;-68
2022/01/27 05:23:24;;;;;;;99.40;42.98;;;;;;;-5.64;75.50;99525.70;1784485;80;20996;-69
2022/01/27 05:25:54;;;;;;;77.92;34.35;;;;;;;-5.65;75.57;99524.07;1784501;80;21027;-68
2022/01/27 05:28:21;;;;;;;61.13;28.12;;;;;;;-5.67;75.75;99524.28;1769773;80;21176;-68
2022/01/27 05:30:49;;;;;;;50.70;23.70;;;;;;;-5.69;76.01;99518.80;1767802;81;20913;-68
2022/01/27 05:33:18;;;;;;;41.37;18.23;;;;;;;-5.67;76.25;99520.25;1767777;81;20953;-68
2022/01/27 05:35:46;;;;;;;32.70;15.38;;;;;;;-5.67;76.29;99524.28;1767860;81;21684;-69
2022/01/27 05:38:14;;;;;;;30.43;12.50;;;;;;;-5.64;76.48;99518.48;1767909;81;21595;-69
2022/01/27 05:40:43;;;;;;;29.65;11.05;;;;;;;-5.63;76.56;99518.78;1767855;81;21180;-69
2022/01/27 05:43:13;;;;;;;23.60;11.20;;;;;;;-5.63;76.50;99520.66;1767839;81;20928;-68
2022/01/27 05:45:41;;;;;;;26.23;11.65;;;;;;;-5.64;76.45;99520.33;1768011;81;20932;-68
2022/01/27 05:48:08;;;;;;;39.00;16.57;;;;;;;-5.64;76.62;99528.39;1768295;81;20893;-69
2022/01/27 05:50:35;;;;;;;37.08;15.03;;;;;;;-5.64;76.76;99515.80;1743881;81;20996;-69
2022/01/27 05:53:03;;;;;;;36.93;15.60;;;;;;;-5.63;76.86;99519.31;1767778;81;21198;-68
2022/01/27 05:55:31;;;;;;;38.95;15.20;;;;;;;-5.61;76.93;99517.22;1767888;81;20952;-69
2022/01/27 05:58:05;;;;;;;35.40;16.40;;;;;;;-5.62;77.00;99514.23;1767496;81;20928;-69
2022/01/27 06:00:35;;;;;;;30.48;13.45;;;;;;;-5.63;77.00;99518.78;1767849;81;20905;-68
2022/01/27 06:03:02;;;;;;;23.67;10.53;;;;;;;-5.60;77.21;99524.25;1767729;81;21024;-67
2022/01/27 06:05:29;;;;;;;20.85;8.80;;;;;;;-5.53;77.66;99520.20;1767823;81;21941;-69
2022/01/27 06:07:56;;;;;;;20.43;8.50;;;;;;;-5.38;78.06;99522.60;1767709;81;21402;-68
2022/01/27 06:10:25;;;;;;;21.12;10.18;;;;;;;-5.23;78.10;99530.88;1767955;81;21517;-67
2022/01/27 06:12:56;;;;;;;19.35;8.43;;;;;;;-5.13;78.11;99519.98;1768222;81;21499;-68
2022/01/27 06:15:25;;;;;;;17.52;7.17;;;;;;;-4.99;78.18;99516.38;1767920;81;20978;-68
2022/01/27 06:17:52;;;;;;;20.15;8.10;;;;;;;-4.87;77.93;99516.50;1744010;81;21073;-68
2022/01/27 06:20:32;;;;;;;18.07;7.65;;;;;;;-4.83;77.62;99508.31;1767811;81;20916;-69
2022/01/27 06:22:58;;;;;;;;;;;;;;;-4.81;77.69;99502.20;1747544;81;20936;-68
2022/01/27 06:25:30;;;;;;;18.10;8.00;;;;;;;-4.72;77.77;99507.60;1767903;81;20164;-69
2022/01/27 06:28:01;;;;;;;18.48;6.47;;;;;;;-4.66;77.63;99501.88;1747069;80;20995;-68
2022/01/27 06:30:34;;;;;;;18.98;8.85;;;;;;;-4.59;77.41;99489.72;1778701;80;21117;-69
2022/01/27 06:32:58;;;;;;;17.60;8.68;;;;;;;-4.54;77.48;99496.06;1778275;80;20873;-68
2022/01/27 06:35:25;;;;;;;23.67;10.08;;;;;;;-4.43;77.50;99490.50;1778755;80;20935;-68
2022/01/27 06:37:55;;;;;;;19.40;8.90;;;;;;;-4.34;77.06;99484.83;1778695;80;20885;-67
2022/01/27 06:40:22;;;;;;;19.50;9.13;;;;;;;-4.30;77.13;99480.66;1778752;80;20876;-68
2022/01/27 06:42:52;;;;;;;23.20;10.20;;;;;;;-4.21;77.19;99471.74;1717759;80;21156;-68
2022/01/27 06:45:20;;;;;;;21.97;10.23;;;;;;;-4.10;77.27;99479.61;1779004;80;21441;-68
2022/01/27 06:47:47;;;;;;;28.42;11.53;;;;;;;-3.99;77.26;99480.75;1778660;80;20880;-67
2022/01/27 06:50:13;;;;;;;29.12;12.33;;;;;;;-3.91;77.06;99487.18;1778620;80;21764;-68
2022/01/27 06:52:43;;;;;;;27.93;11.03;;;;;;;-3.84;77.05;99479.02;1779120;80;20916;-68
2022/01/27 06:55:21;;;;;;;21.37;10.48;;;;;;;-3.74;77.02;99469.89;1778402;80;20936;-69
2022/01/27 06:57:49;;;;;;;25.50;10.65;;;;;;;-3.68;76.90;99473.02;1778746;80;20928;-69
2022/01/27 07:00:17;;;;;;;22.05;9.98;;;;;;;-3.61;76.77;99469.41;1778750;80;20991;-68
2022/01/27 07:02:47;;;;;;;20.92;9.88;;;;;;;-3.54;76.66;99474.19;1778643;80;20999;-69
2022/01/27 07:05:18;;;;;;;22.82;10.43;;;;;;;-3.50;76.59;99467.82;1778378;80;20975;-68
2022/01/27 07:07:44;;;;;;;24.12;10.00;;;;;;;-3.48;76.45;99462.48;1778912;80;21824;-69
2022/01/27 07:10:14;;;;;;;21.12;10.55;;;;;;;-3.46;76.45;99469.83;1778605;80;20928;-68
2022/01/27 07:12:41;;;;;;;19.90;10.72;;;;;;;-3.44;76.37;99461.52;1778765;80;21014;-67
2022/01/27 07:15:12;;;;;;;23.15;10.25;;;;;;;-3.39;76.43;99463.52;1778806;80;21449;-69
2022/01/27 07:17:42;;;;;;;23.12;11.08;;;;;;;-3.37;76.27;99459.55;1778409;80;20975;-68
2022/01/27 07:20:13;;;;;;;25.85;13.00;;;;;;;-3.38;76.24;99459.27;1778634;80;23241;-67
2022/01/27 07:22:42;;;;;;;24.35;10.93;;;;;;;-3.35;76.34;99462.02;1778700;80;20944;-68
2022/01/27 07:25:12;;;;;;;30.37;12.95;;;;;;;-3.33;76.44;99454.02;1778703;80;21472;-68
2022/01/27 07:27:41;;;;;;;29.87;14.10;;;;;;;-3.30;76.58;99452.20;1746715;80;21011;-68
2022/01/27 07:30:12;;;;;;;33.42;15.53;;;;;;;-3.28;76.58;99451.97;1778420;80;21089;-68
2022/01/27 07:32:43;;;;;;;40.28;15.80;;;;;;;-3.24;76.79;99450.44;1778354;80;21124;-68
2022/01/27 07:35:13;;;;;;;36.95;15.32;;;;;;;-3.22;76.60;99444.30;1779000;80;21433;-68
2022/01/27 07:37:45;;;;;;;34.18;14.73;;;;;;;-3.23;76.76;99439.14;1778555;80;20982;-68
2022/01/27 07:40:13;;;;;;;27.95;13.30;;;;;;;-3.22;76.65;99435.38;1778569;80;21462;-69
2022/01/27 07:42:43;;;;;;;35.30;12.73;;;;;;;-3.19;76.66;99433.60;1746094;80;21008;-68
2022/01/27 07:45:11;;;;;;;29.07;12.28;;;;;;;-3.18;76.73;99434.72;1778486;80;21540;-67
2022/01/27 07:47:38;;;;;;;27.27;12.82;;;;;;;-3.16;76.72;99437.17;1778160;80;21437;-68
2022/01/27 07:50:08;;;;;;;28.25;13.15;;;;;;;-3.11;76.97;99441.88;1778379;80;20900;-68
2022/01/27 07:52:37;;;;;;;22.45;11.43;;;;;;;-3.06;77.18;99438.78;1778537;80;20897;-68
2022/01/27 07:55:05;;;;;;;24.20;12.40;;;;;;;-2.95;77.36;99433.64;1778457;80;20980;-68
2022/01/27 07:57:35;;;;;;;26.05;12.93;;;;;;;-2.88;77.41;99438.38;1778403;80;21126;-68
2022/01/27 08:00:13;;;;;;;30.15;14.33;;;;;;;-2.80;77.47;99433.19;1747035;80;20900;-68
2022/01/27 08:02:43;;;;;;;25.20;12.28;;;;;;;-2.71;77.50;99433.12;1778056;80;21016;-68
2022/01/27 08:05:12;;;;;;;30.15;12.37;;;;;;;-2.60;77.43;99434.20;1778512;80;20979;-68
2022/01/27 08:07:42;;;;;;;29.87;14.53;;;;;;;-2.54;77.23;99432.41;1778601;80;21556;-68
2022/01/27 08:10:09;;;;;;;37.83;17.20;;;;;;;-2.48;77.10;99430.14;1745863;80;21369;-68
2022/01/27 08:12:41;;;;;;;29.02;15.13;;;;;;;-2.40;77.03;99431.65;1778249;80;20885;-67
2022/01/27 08:15:18;;;;;;;19.67;10.35;;;;;;;-2.35;76.88;99425.53;1778795;80;20975;-67
2022/01/27 08:17:43;;;;;;;38.50;15.30;;;;;;;-2.31;76.89;99421.32;1777877;80;20988;-68
2022/01/27 08:20:10;;;;;;;27.22;13.38;;;;;;;-2.25;76.88;99420.36;1778434;80;20845;-68
2022/01/27 08:22:44;;;;;;;26.33;12.93;;;;;;;-2.19;76.96;99422.66;1778506;80;21122;-67
2022/01/27 08:25:11;;;;;;;29.12;13.32;;;;;;;-2.12;77.09;99419.82;1719778;82;21087;-68
2022/01/27 08:27:40;;;;;;;31.97;13.98;;;;;;;-2.05;77.08;99423.22;1722806;83;20988;-68
2022/01/27 08:30:09;;;;;;;28.73;14.00;;;;;;;-2.01;77.21;99423.02;1718455;83;20952;-67
2022/01/27 08:32:47;;;;;;;27.98;13.53;;;;;;;-1.97;77.21;99429.59;1718320;83;20949;-67
2022/01/27 08:35:18;;;;;;;27.80;13.53;;;;;;;-1.92;77.34;99422.11;1718145;83;21070;-68
2022/01/27 08:37:49;;;;;;;22.17;12.57;;;;;;;-1.84;77.41;99422.26;1718682;83;20901;-68
2022/01/27 08:40:16;;;;;;;31.50;12.88;;;;;;;-1.77;77.35;99424.30;1718421;83;20917;-68
2022/01/27 08:42:45;;;;;;;25.55;13.35;;;;;;;-1.72;77.27;99416.81;1718279;83;20953;-68
2022/01/27 08:45:16;;;;;;;20.45;12.23;;;;;;;-1.68;76.99;99405.00;1718318;83;20882;-68
2022/01/27 08:47:45;;;;;;;38.63;17.20;;;;;;;-1.66;77.07;99401.53;1718384;83;21770;-67
2022/01/27 08:50:14;;;;;;;25.52;11.78;;;;;;;-1.60;77.03;99415.41;1718121;83;20964;-68
2022/01/27 08:52:42;;;;;;;44.48;16.48;;;;;;;-1.57;76.86;99410.91;1718206;83;21536;-68
2022/01/27 08:55:12;;;;;;;46.50;17.82;;;;;;;-1.58;76.85;99407.89;1718112;83;21004;-69
2022/01/27 08:57:38;;;;;;;33.23;15.83;;;;;;;-1.53;77.01;99408.51;1695130;83;20992;-67
2022/01/27 09:00:08;;;;;;;46.20;19.23;;;;;;;-1.47;76.99;99403.50;1718337;80;22885;-67
2022/01/27 09:02:38;;;;;;;44.65;17.70;;;;;;;-1.44;76.85;99398.13;1718395;83;20905;-67
2022/01/27 09:05:08;;;;;;;40.88;17.85;;;;;;;-1.40;76.74;99392.54;1718286;83;20992;-68
2022/01/27 09:07:38;;;;;;;53.00;19.80;;;;;;;-1.38;76.73;99393.13;1718278;83;21482;-67
2022/01/27 09:10:08;;;;;;;43.65;16.95;;;;;;;-1.38;76.85;99386.36;1718305;83;20924;-67
2022/01/27 09:12:36;;;;;;;45.88;17.67;;;;;;;-1.38;77.05;99375.00;1718242;83;21162;-68
2022/01/27 09:15:10;;;;;;;38.30;16.35;;;;;;;-1.35;77.28;99374.50;1718253;83;20924;-68
2022/01/27 09:17:43;;;;;;;41.98;17.27;;;;;;;-1.34;77.50;99371.28;1718337;83;20905;-67
2022/01/27 09:20:16;;;;;;;55.43;18.73;;;;;;;-1.30;77.93;99368.39;1718220;83;21526;-68
2022/01/27 09:22:51;;;;;;;29.92;15.50;;;;;;;-1.29;78.00;99363.78;1718507;83;20893;-67
2022/01/27 09:25:22;;;;;;;;;;;;;;;-1.21;78.30;99366.63;1720902;83;21301;-68
2022/01/27 09:27:49;;;;;;;34.45;16.12;;;;;;;-1.12;78.63;99365.14;1718226;82;20075;-67
2022/01/27 09:30:18;;;;;;;30.50;15.30;;;;;;;-1.04;78.74;99364.72;1732056;82;20904;-68
2022/01/27 09:32:50;;;;;;;29.48;14.95;;;;;;;-0.95;78.47;99362.42;1732001;82;20932;-67
2022/01/27 09:35:17;;;;;;;26.10;13.93;;;;;;;-0.95;78.42;99358.37;1732432;82;20853;-67
2022/01/27 09:37:44;;;;;;;28.67;15.05;;;;;;;-0.93;78.46;99355.41;1732023;82;21153;-68
2022/01/27 09:40:15;;;;;;;27.30;14.95;;;;;;;-0.88;78.74;99356.84;1731911;82;21385;-67
2022/01/27 09:42:49;;;;;;;29.35;14.80;;;;;;;-0.84;78.75;99355.30;1731925;81;20932;-67
2022/01/27 09:45:15;;;;;;;31.05;14.98;;;;;;;-0.79;78.98;99361.31;1703707;82;21031;-67
2022/01/27 09:47:57;;;;;;;33.33;16.60;;;;;;;-0.70;79.05;99357.09;1732378;81;20955;-68
2022/01/27 09:51:11;;;;;;;31.35;15.55;;;;;;;-0.61;79.08;99356.14;1732199;82;21142;-68
2022/01/27 09:53:00;;;;;;;32.85;15.55;;;;;;;-0.64;79.05;99358.00;1722983;82;20936;-68
2022/01/27 09:55:32;;;;;;;40.05;18.77;;;;;;;-0.70;78.97;99350.89;1732204;81;20888;-68
2022/01/27 09:58:01;;;;;;;32.78;16.32;;;;;;;-0.72;79.39;99351.14;1732168;82;21004;-68
2022/01/27 10:00:31;;;;;;;43.58;18.27;;;;;;;-0.67;79.59;99345.80;1732459;82;21031;-68
2022/01/27 10:03:07;;;;;;;32.38;17.70;;;;;;;-0.60;79.65;99346.97;1732247;82;21768;-68
2022/01/27 10:05:36;;;;;;;42.25;18.10;;;;;;;-0.58;79.54;99344.80;1732038;82;21039;-67
2022/01/27 10:08:17;;;;;;;34.55;18.62;;;;;;;-0.58;79.39;99347.52;1732122;81;20963;-68
2022/01/27 10:10:50;;;;;;;38.95;19.25;;;;;;;-0.62;79.46;99337.75;1732375;82;20904;-67
2022/01/27 10:13:40;;;;;;;;;;;;;;;-0.63;79.61;99333.91;1705464;82;21039;-68
2022/01/27 10:16:09;;;;;;;35.85;19.05;;;;;;;-0.63;79.85;99332.55;1732260;82;21160;-67
2022/01/27 10:18:41;;;;;;;37.33;18.35;;;;;;;-0.60;80.31;99320.42;1732051;81;20924;-67
2022/01/27 10:21:12;;;;;;;42.20;21.77;;;;;;;-0.58;80.28;99321.80;1702152;82;20980;-67
2022/01/27 10:23:45;;;;;;;38.10;21.20;;;;;;;-0.60;80.38;99309.59;1732191;82;21001;-67
2022/01/27 10:26:23;;;;;;;37.95;21.05;;;;;;;-0.62;80.46;99323.39;1732034;82;21500;-67
2022/01/27 10:28:51;;;;;;;38.80;18.95;;;;;;;-0.63;80.69;99323.08;1727910;81;21116;-67
2022/01/27 10:31:24;;;;;;;40.23;19.57;;;;;;;-0.61;80.74;99326.36;1718325;83;20975;-68
2022/01/27 10:33:58;;;;;;;35.52;18.82;;;;;;;-0.65;80.66;99319.83;1718711;83;21023;-67
2022/01/27 10:36:31;;;;;;;39.38;19.32;;;;;;;-0.68;80.77;99316.27;1718847;83;20885;-68
2022/01/27 10:39:12;;;;;;;38.02;20.00;;;;;;;-0.74;80.94;99317.56;1718424;83;20981;-68
2022/01/27 10:42:06;;;;;;;41.15;21.68;;;;;;;-0.74;81.08;99318.09;1718440;83;21155;-66
2022/01/27 10:44:43;;;;;;;41.73;22.07;;;;;;;-0.74;81.33;99312.14;1718201;83;20967;-66
2022/01/27 10:47:15;;;;;;;46.45;25.02;;;;;;;-0.70;81.40;99304.88;1716926;83;21001;-67
2022/01/27 10:49:48;;;;;;;47.30;24.65;;;;;;;-0.68;81.58;99298.69;1718518;83;20885;-67
2022/01/27 10:52:33;;;;;;;47.17;23.18;;;;;;;-0.67;81.61;99301.66;1717762;83;21072;-67
2022/01/27 10:55:11;;;;;;;44.30;23.90;;;;;;;-0.67;81.74;99298.95;1695897;83;21205;-67
2022/01/27 10:57:47;;;;;;;39.70;21.73;;;;;;;-0.66;81.78;99298.70;1718024;83;20984;-68
2022/01/27 11:00:15;;;;;;;41.83;23.95;;;;;;;-0.64;81.62;99298.45;1717654;83;20838;-68
2022/01/27 11:03:02;;;;;;;46.98;24.37;;;;;;;-0.67;81.57;99294.89;1717046;83;20928;-67
2022/01/27 11:05:41;;;;;;;46.53;25.00;;;;;;;-0.70;81.79;99300.81;1718449;83;21060;-68
2022/01/27 11:08:10;;;;;;;46.60;24.85;;;;;;;-0.74;81.90;99294.55;1718607;83;21113;-67
2022/01/27 11:10:39;;;;;;;53.58;27.52;;;;;;;-0.77;82.13;99290.97;1718460;83;20842;-67
2022/01/27 11:13:10;;;;;;;44.27;25.32;;;;;;;-0.78;82.36;99289.34;1718390;83;21441;-67
2022/01/27 11:15:42;;;;;;;47.85;23.87;;;;;;;-0.74;82.49;99286.96;1695762;83;21402;-66
2022/01/27 11:18:14;;;;;;;41.10;23.67;;;;;;;-0.71;82.62;99281.56;1695076;83;20949;-68
2022/01/27 11:23:46;;;;;;;49.55;27.62;;;;;;;-0.75;82.85;99273.16;1718510;83;21651;-67
2022/01/27 11:25:55;;;;;;;55.43;26.70;;;;;;;-0.77;83.01;99278.00;1715124;83;21027;-67
2022/01/27 11:28:23;;;;;;;55.48;28.75;;;;;;;-0.79;83.23;99272.84;1718149;83;21008;-67
2022/01/27 11:31:36;;;;;;;52.03;27.95;;;;;;;-0.78;83.33;99271.75;1715188;83;21063;-66
2022/01/27 11:34:07;;;;;;;50.20;25.80;;;;;;;-0.77;83.51;99270.67;1734987;81;21172;-65
2022/01/27 11:36:37;;;;;;;50.45;27.17;;;;;;;-0.74;83.69;99262.61;1769827;79;21015;-67
2022/01/27 11:39:14;;;;;;;47.78;25.45;;;;;;;-0.74;83.87;99258.55;1766647;80;21054;-65
2022/01/27 11:41:48;;;;;;;48.33;24.52;;;;;;;-0.72;84.01;99258.30;1771908;80;20995;-66
2022/01/27 11:44:28;;;;;;;54.77;27.17;;;;;;;-0.72;84.12;99255.59;1761004;80;21491;-66
2022/01/27 11:47:17;;;;;;;58.20;29.87;;;;;;;-0.71;84.38;99247.22;1766050;79;20984;-66
2022/01/27 11:50:12;;;;;;;50.55;26.55;;;;;;;-0.68;84.66;99242.64;1769014;80;21007;-66
2022/01/27 11:52:33;;;;;;;48.20;26.20;;;;;;;-0.61;84.79;99245.16;1763986;80;20995;-66
2022/01/27 11:55:35;;;;;;;48.08;25.68;;;;;;;-0.56;84.90;99245.22;1767338;80;21055;-66
2022/01/27 11:58:22;;;;;;;50.17;26.07;;;;;;;-0.52;84.98;99244.19;1760881;80;21050;-66
2022/01/27 12:01:14;;;;;;;55.80;29.15;;;;;;;-0.47;85.14;99243.42;1769262;80;21210;-66
2022/01/27 12:04:07;;;;;;;54.55;26.82;;;;;;;-0.44;85.19;99240.20;1769568;80;21071;-67
2022/01/27 12:06:53;;;;;;;57.25;28.92;;;;;;;-0.41;85.30;99241.08;1767704;80;20999;-68
2022/01/27 12:09:31;;;;;;;58.87;29.57;;;;;;;-0.41;85.39;99237.01;1768449;79;21043;-66
2022/01/27 12:12:13;;;;;;;57.93;31.05;;;;;;;-0.38;85.51;99232.44;1753722;80;20995;-69
2022/01/27 12:14:46;;;;;;;58.87;32.03;;;;;;;-0.36;85.54;99237.07;1763658;80;20929;-66
2022/01/27 12:17:16;;;;;;;53.00;30.45;;;;;;;-0.36;85.57;99227.59;1784061;80;20994;-66
2022/01/27 12:20:07;;;;;;;51.70;29.07;;;;;;;-0.36;85.65;99228.95;1759561;79;20991;-68
2022/01/27 12:22:52;;;;;;;50.30;27.37;;;;;;;-0.37;85.79;99229.47;1759390;80;20967;-67